Impacts METAR Board
IDs:

KDCA - Washington/National, VA, US

Updated at: 1200 UTC 13 Dec 2018
Potential Impact None Slight Moderate High
Time 13/00Z 13/01Z 13/02Z 13/03Z 13/04Z 13/05Z 13/06Z 13/07Z 13/08Z 13/09Z 13/10Z 13/11Z 13/12Z
Temp41 39 40 38 37 38 39 39 41 40 39 40 40
Dewpt26 26 26 26 28 29 29 30 30 30 31 30 30
Altim30.19 30.20 30.21 30.20 30.20 30.21 30.19 30.20 30.20 30.21 30.22 30.23 30.26
VIS10 10 10 10 10 10 10 10 10 10 10 10 10
CIG90 250 240 240 250 65 60 65 60 85 80 70 65
CoverOVCBKNOVCOVCBKNOVCOVCOVCOVCOVCOVCOVCOVC
FltCatVFRVFRVFRVFRVFRVFRVFRVFRVFRVFRVFRVFRVFR
WX--------------------------
WDir1601901601601501501601901601800130150
WSpd9 7 6 7 5 3 4 4 5 4 0 3 5
WGst-- -- -- -- -- -- -- -- -- -- -- -- --
Raw hourly METARs
KDCA 122352Z 16009KT 10SM BKN090 OVC250 05/M03 A3019 RMK AO2 SLP221 T00501033 10083 20050 50001
KDCA 130052Z 19007KT 10SM SCT090 BKN250 04/M03 A3020 RMK AO2 SLP225 T00391033
KDCA 130152Z 16006KT 10SM FEW090 BKN240 OVC250 04/M03 A3021 RMK AO2 SLP228 T00441033
KDCA 130252Z 16007KT 10SM FEW095 BKN240 OVC250 03/M03 A3020 RMK AO2 SLP226 T00331033 50005
KDCA 130352Z 15005KT 10SM FEW100 SCT240 BKN250 03/M02 A3020 RMK AO2 SLP226 T00281022
KDCA 130452Z 15003KT 10SM OVC065 03/M02 A3021 RMK AO2 SLP228 T00331017 400831011
KDCA 130552Z 16004KT 10SM OVC060 04/M02 A3019 RMK AO2 SLP223 T00391017 10056 20028 58003
KDCA 130652Z 19004KT 10SM BKN065 OVC085 04/M01 A3020 RMK AO2 SLP225 T00391011
KDCA 130752Z 16005KT 10SM OVC060 05/M01 A3020 RMK AO2 SLP227 T00501011
KDCA 130852Z 18004KT 10SM FEW060 OVC085 04/M01 A3021 RMK AO2 SLP228 T00441011 51005
KDCA 130952Z 00000KT 10SM OVC080 04/M01 A3022 RMK AO2 SLP232 T00391006
KDCA 131052Z 13003KT 10SM SCT060 OVC070 04/M01 A3023 RMK AO2 SLP237 T00441011
KDCA 131152Z 15005KT 10SM OVC065 04/M01 A3026 RMK AO2 SLP245 T00441011 10050 20039 53017



Page loaded:  12:44 UTC  |   04:44 AM Pacific  |   05:44 AM Mountain  |   06:44 AM Central  |   07:44 AM Eastern

 

ADVISORIES

FORECASTS

FORECASTS

OBSERVATIONS

USER TOOLS

ABOUT US